createdAt,value
2018-02-22T00:01:21.478Z,11.20
2018-02-22T00:03:50.504Z,10.57
2018-02-22T00:06:19.393Z,10.90
2018-02-22T00:08:48.292Z,10.77
2018-02-22T00:11:17.170Z,11.37
2018-02-22T00:13:46.081Z,12.50
2018-02-22T00:16:14.977Z,11.67
2018-02-22T00:18:43.875Z,11.60
2018-02-22T00:21:12.772Z,11.63
2018-02-22T00:23:41.696Z,11.17
2018-02-22T00:26:10.575Z,11.20
2018-02-22T00:28:39.498Z,11.67
2018-02-22T00:31:08.383Z,10.40
2018-02-22T00:33:37.284Z,10.80
2018-02-22T00:36:06.166Z,12.07
2018-02-22T00:38:35.102Z,11.93
2018-02-22T00:41:04.003Z,11.27
2018-02-22T00:43:32.922Z,11.00
2018-02-22T00:46:01.909Z,11.83
2018-02-22T00:48:30.801Z,11.27
2018-02-22T00:50:59.499Z,10.40
2018-02-22T00:53:27.045Z,11.23
2018-02-22T00:55:55.951Z,11.73
2018-02-22T00:58:24.834Z,11.03
2018-02-22T01:00:53.727Z,11.10
2018-02-22T01:03:22.607Z,11.93
2018-02-22T01:05:51.508Z,12.03
2018-02-22T01:08:20.391Z,11.07
2018-02-22T01:10:49.293Z,11.67
2018-02-22T01:13:18.183Z,11.17
2018-02-22T01:15:47.087Z,10.40
2018-02-22T01:18:15.970Z,11.60
2018-02-22T01:20:44.887Z,11.53
2018-02-22T01:23:13.777Z,11.77
2018-02-22T01:25:42.670Z,10.53
2018-02-22T01:28:11.563Z,11.27
2018-02-22T01:30:40.464Z,10.80
2018-02-22T01:33:09.355Z,11.37
2018-02-22T01:35:38.252Z,11.20
2018-02-22T01:38:07.148Z,12.30
2018-02-22T01:40:36.034Z,11.97
2018-02-22T01:43:04.944Z,10.53
2018-02-22T01:45:33.835Z,11.23
2018-02-22T01:48:02.745Z,10.30
2018-02-22T01:50:31.662Z,10.77
2018-02-22T01:53:00.568Z,10.80
2018-02-22T01:55:29.464Z,11.47
2018-02-22T01:57:58.375Z,11.20
2018-02-22T02:00:27.262Z,13.00
2018-02-22T02:02:56.180Z,11.80
2018-02-22T02:05:25.063Z,11.93
2018-02-22T02:07:53.981Z,10.97
2018-02-22T02:10:22.876Z,9.60
2018-02-22T02:12:51.766Z,10.20
2018-02-22T02:15:20.659Z,11.00
2018-02-22T02:17:49.530Z,9.70
2018-02-22T02:20:18.437Z,12.90
2018-02-22T02:22:47.340Z,12.07
2018-02-22T02:25:16.239Z,10.57
2018-02-22T02:27:50.764Z,9.60
2018-02-22T02:30:19.671Z,10.77
2018-02-22T02:32:48.551Z,12.03
2018-02-22T02:35:17.451Z,10.87
2018-02-22T02:37:46.327Z,9.00
2018-02-22T02:40:15.224Z,8.17
2018-02-22T02:42:44.104Z,9.40
2018-02-22T02:45:13.003Z,9.87
2018-02-22T02:47:41.900Z,10.40
2018-02-22T02:50:10.820Z,9.00
2018-02-22T02:52:39.700Z,9.83
2018-02-22T02:55:08.588Z,9.77
2018-02-22T02:57:37.482Z,9.10
2018-02-22T03:00:06.358Z,9.20
2018-02-22T03:02:35.271Z,8.10
2018-02-22T03:05:04.155Z,11.60
2018-02-22T03:07:33.060Z,8.90
2018-02-22T03:10:01.939Z,9.27
2018-02-22T03:12:30.831Z,9.93
2018-02-22T03:14:59.710Z,7.80
2018-02-22T03:17:28.613Z,9.37
2018-02-22T03:19:57.496Z,9.70
2018-02-22T03:22:26.389Z,10.57
2018-02-22T03:24:55.263Z,8.80
2018-02-22T03:27:24.162Z,10.10
2018-02-22T03:29:53.063Z,10.03
2018-02-22T03:32:21.975Z,9.30
2018-02-22T03:34:50.855Z,8.73
2018-02-22T03:37:19.737Z,9.30
2018-02-22T03:39:48.642Z,9.33
2018-02-22T03:42:17.523Z,9.40
2018-02-22T03:44:46.414Z,8.50
2018-02-22T03:47:15.291Z,8.90
2018-02-22T03:49:44.183Z,7.90
2018-02-22T03:52:13.075Z,9.50
2018-02-22T03:54:41.970Z,8.00
2018-02-22T03:57:10.859Z,8.50
2018-02-22T03:59:39.755Z,9.20
2018-02-22T04:02:08.638Z,9.40
2018-02-22T04:04:37.536Z,8.43
2018-02-22T04:07:06.421Z,8.23
2018-02-22T04:09:35.329Z,9.13
2018-02-22T04:12:04.213Z,9.23
2018-02-22T04:14:33.085Z,8.47
2018-02-22T04:17:01.989Z,8.17
2018-02-22T04:19:30.866Z,9.33
2018-02-22T04:21:59.755Z,9.13
2018-02-22T04:24:28.634Z,10.33
2018-02-22T04:26:57.530Z,8.07
2018-02-22T04:29:26.498Z,9.30
2018-02-22T04:31:55.412Z,9.63
2018-02-22T04:34:24.299Z,10.03
2018-02-22T04:36:53.195Z,8.33
2018-02-22T04:39:22.203Z,8.83
2018-02-22T04:41:51.095Z,7.47
2018-02-22T04:44:19.977Z,9.17
2018-02-22T04:46:48.880Z,8.57
2018-02-22T04:49:17.768Z,8.37
2018-02-22T04:51:46.684Z,9.77
2018-02-22T04:54:15.573Z,8.37
2018-02-22T04:56:44.449Z,8.53
2018-02-22T04:59:13.339Z,8.80
2018-02-22T05:01:42.215Z,8.00
2018-02-22T05:04:11.174Z,8.47
2018-02-22T05:06:40.033Z,9.00
2018-02-22T05:09:08.924Z,8.33
2018-02-22T05:11:37.810Z,8.37
2018-02-22T05:14:06.736Z,7.50
2018-02-22T05:16:35.580Z,9.30
2018-02-22T05:19:04.451Z,8.77
2018-02-22T05:21:33.307Z,7.80
2018-02-22T05:24:02.205Z,8.80
2018-02-22T05:26:31.055Z,7.70
2018-02-22T05:28:59.919Z,7.97
2018-02-22T05:31:28.786Z,8.13
2018-02-22T05:33:57.646Z,10.33
2018-02-22T05:36:26.515Z,9.00
2018-02-22T05:38:55.371Z,8.53
2018-02-22T05:41:24.249Z,8.27
2018-02-22T05:43:53.113Z,8.27
2018-02-22T05:46:22.005Z,8.53
2018-02-22T05:48:50.851Z,9.47
2018-02-22T05:51:19.727Z,7.80
2018-02-22T05:53:48.589Z,7.60
2018-02-22T05:56:17.464Z,8.33
2018-02-22T05:58:46.315Z,8.30
2018-02-22T06:01:15.206Z,8.30
2018-02-22T06:03:44.058Z,7.50
2018-02-22T06:06:12.910Z,7.10
2018-02-22T06:08:41.781Z,7.97
2018-02-22T06:11:10.641Z,7.40
2018-02-22T06:13:39.528Z,8.10
2018-02-22T06:16:08.379Z,7.30
2018-02-22T06:18:37.261Z,8.00
2018-02-22T06:21:06.118Z,7.73
2018-02-22T06:23:34.988Z,8.37
2018-02-22T06:26:03.848Z,6.93
2018-02-22T06:28:32.719Z,7.27
2018-02-22T06:31:01.571Z,6.80
2018-02-22T06:33:30.436Z,6.47
2018-02-22T06:35:59.283Z,7.73
2018-02-22T06:38:28.167Z,7.40
2018-02-22T06:40:57.018Z,6.30
2018-02-22T06:43:25.886Z,8.43
2018-02-22T06:45:54.751Z,8.00
2018-02-22T06:48:23.629Z,6.33
2018-02-22T06:50:52.499Z,8.00
2018-02-22T06:53:21.420Z,8.20
2018-02-22T06:55:50.287Z,7.90
2018-02-22T06:58:19.153Z,7.40
2018-02-22T07:00:48.019Z,7.37
2018-02-22T07:03:16.866Z,6.90
2018-02-22T07:05:45.739Z,7.47
2018-02-22T07:08:14.624Z,8.80
2018-02-22T07:10:43.489Z,7.10
2018-02-22T07:13:12.357Z,8.30
2018-02-22T07:15:41.237Z,7.07
2018-02-22T07:18:10.100Z,7.20
2018-02-22T07:20:39.014Z,7.73
2018-02-22T07:23:16.651Z,7.93
2018-02-22T07:25:36.766Z,7.00
2018-02-22T07:28:05.632Z,7.10
2018-02-22T07:30:34.534Z,7.23
2018-02-22T07:33:03.391Z,6.90
2018-02-22T07:35:32.259Z,8.30
2018-02-22T07:38:01.210Z,7.53
2018-02-22T07:40:30.093Z,7.20
2018-02-22T07:42:58.953Z,6.97
2018-02-22T07:45:27.826Z,6.23
2018-02-22T07:47:56.703Z,7.00
2018-02-22T07:50:25.604Z,7.20
2018-02-22T07:52:54.475Z,7.97
2018-02-22T07:55:23.334Z,7.47
2018-02-22T07:57:52.208Z,7.17
2018-02-22T08:00:21.094Z,7.20
2018-02-22T08:02:49.988Z,6.70
2018-02-22T08:05:18.860Z,7.73
2018-02-22T08:07:47.731Z,7.27
2018-02-22T08:10:16.597Z,7.57
2018-02-22T08:12:45.467Z,7.90
2018-02-22T08:15:14.338Z,5.93
2018-02-22T08:17:43.280Z,7.23
2018-02-22T08:20:12.991Z,7.70
2018-02-22T08:22:41.876Z,6.80
2018-02-22T08:25:10.744Z,8.20
2018-02-22T08:27:39.615Z,6.87
2018-02-22T08:30:08.476Z,7.20
2018-02-22T08:32:37.355Z,6.27
2018-02-22T08:35:06.225Z,7.27
2018-02-22T08:37:35.112Z,6.77
2018-02-22T08:40:04.044Z,7.23
2018-02-22T08:42:32.928Z,7.67
2018-02-22T08:45:01.788Z,7.00
2018-02-22T08:47:30.688Z,7.70
2018-02-22T08:49:59.547Z,6.93
2018-02-22T08:52:28.418Z,7.33
2018-02-22T08:54:57.297Z,7.17
2018-02-22T08:57:26.162Z,7.80
2018-02-22T08:59:55.156Z,7.30
2018-02-22T09:02:24.007Z,7.10
2018-02-22T09:04:52.875Z,6.87
2018-02-22T09:07:21.753Z,6.73
2018-02-22T09:09:50.632Z,8.67
2018-02-22T09:12:29.008Z,7.90
2018-02-22T09:14:57.879Z,7.63
2018-02-22T09:17:26.735Z,7.80
2018-02-22T09:19:55.608Z,7.07
2018-02-22T09:22:24.454Z,7.47
2018-02-22T09:24:53.331Z,6.83
2018-02-22T09:27:22.198Z,7.40
2018-02-22T09:29:51.080Z,6.77
2018-02-22T09:32:19.944Z,8.97
2018-02-22T09:34:48.822Z,7.97
2018-02-22T09:37:17.700Z,7.00
2018-02-22T09:39:46.604Z,8.03
2018-02-22T09:42:15.468Z,7.93
2018-02-22T09:44:44.351Z,7.30
2018-02-22T09:47:13.222Z,6.70
2018-02-22T09:49:42.098Z,7.10
2018-02-22T09:52:10.958Z,7.73
2018-02-22T09:54:39.831Z,7.20
2018-02-22T09:57:08.699Z,6.77
2018-02-22T09:59:37.560Z,7.23
2018-02-22T10:02:06.490Z,6.87
2018-02-22T10:04:35.368Z,8.37
2018-02-22T10:07:04.260Z,7.13
2018-02-22T10:09:33.118Z,7.00
2018-02-22T10:12:02.036Z,7.30
2018-02-22T10:14:30.891Z,7.67
2018-02-22T10:16:59.767Z,7.77
2018-02-22T10:19:28.630Z,7.67
2018-02-22T10:21:57.517Z,6.73
2018-02-22T10:24:26.380Z,8.10
2018-02-22T10:26:55.261Z,7.43
2018-02-22T10:29:24.121Z,7.83
2018-02-22T10:31:52.990Z,7.37
2018-02-22T10:34:21.848Z,9.50
2018-02-22T10:36:50.717Z,8.73
2018-02-22T10:39:19.582Z,9.17
2018-02-22T10:41:48.463Z,10.97
2018-02-22T10:44:17.329Z,9.90
2018-02-22T10:46:46.220Z,9.90
2018-02-22T10:49:15.084Z,10.00
2018-02-22T10:51:43.984Z,11.43
2018-02-22T10:54:12.880Z,11.00
2018-02-22T10:56:41.756Z,10.57
2018-02-22T10:59:10.644Z,10.13
2018-02-22T11:01:45.160Z,10.13
2018-02-22T11:04:14.037Z,8.60
2018-02-22T11:06:42.904Z,9.87
2018-02-22T11:09:11.779Z,8.33
2018-02-22T11:11:40.626Z,8.67
2018-02-22T11:14:09.495Z,8.67
2018-02-22T11:16:38.359Z,9.17
2018-02-22T11:19:07.274Z,9.30
2018-02-22T11:21:36.139Z,9.33
2018-02-22T11:24:05.023Z,8.37
2018-02-22T11:26:33.874Z,9.17
2018-02-22T11:29:02.756Z,10.10
2018-02-22T11:31:31.622Z,9.53
2018-02-22T11:34:00.496Z,10.50
2018-02-22T11:36:29.367Z,9.10
2018-02-22T11:38:58.245Z,10.23
2018-02-22T11:41:27.108Z,9.50
2018-02-22T11:43:56.003Z,8.97
2018-02-22T11:46:24.851Z,8.67
2018-02-22T11:48:53.703Z,9.57
2018-02-22T11:51:22.583Z,8.70
2018-02-22T11:53:51.454Z,9.10
2018-02-22T11:56:20.326Z,9.70
2018-02-22T11:58:49.189Z,9.37
2018-02-22T12:01:18.081Z,8.93
2018-02-22T12:03:46.950Z,10.00
2018-02-22T12:06:15.828Z,9.63
2018-02-22T12:08:44.706Z,10.50
2018-02-22T12:11:13.587Z,10.87
2018-02-22T12:13:42.446Z,10.80
2018-02-22T12:16:11.326Z,10.93
2018-02-22T12:18:40.197Z,10.03
2018-02-22T12:21:09.093Z,11.70
2018-02-22T12:23:37.964Z,11.30
2018-02-22T12:26:06.857Z,11.80
2018-02-22T12:28:35.724Z,11.83
2018-02-22T12:31:04.588Z,11.20
2018-02-22T12:33:33.471Z,10.90
2018-02-22T12:36:02.383Z,10.83
2018-02-22T12:38:31.260Z,10.90
2018-02-22T12:41:00.123Z,9.13
2018-02-22T12:43:29.022Z,11.03
2018-02-22T12:45:57.889Z,9.20
2018-02-22T12:48:27.577Z,11.60
2018-02-22T12:50:56.461Z,10.83
2018-02-22T12:53:25.353Z,10.60
2018-02-22T12:55:54.227Z,10.70
2018-02-22T12:58:23.102Z,10.60
2018-02-22T13:00:51.959Z,10.60
2018-02-22T13:03:20.847Z,10.30
2018-02-22T13:05:49.702Z,10.07
2018-02-22T13:08:18.603Z,11.30
2018-02-22T13:10:47.457Z,10.03
2018-02-22T13:13:16.350Z,10.70
2018-02-22T13:15:45.226Z,9.33
2018-02-22T13:18:14.125Z,9.93
2018-02-22T13:20:43.019Z,11.53
2018-02-22T13:23:11.933Z,11.20
2018-02-22T13:25:40.803Z,10.47
2018-02-22T13:28:09.674Z,10.77
2018-02-22T13:30:38.562Z,10.67
2018-02-22T13:33:13.204Z,11.07
2018-02-22T13:35:42.081Z,9.80
2018-02-22T13:38:16.747Z,10.07
2018-02-22T13:40:45.638Z,11.23
2018-02-22T13:43:14.494Z,10.67
2018-02-22T13:45:43.384Z,8.73
2018-02-22T13:48:12.235Z,9.90
2018-02-22T13:50:46.944Z,9.40
2018-02-22T13:53:15.811Z,8.67
2018-02-22T13:55:44.679Z,8.90
2018-02-22T13:58:13.552Z,8.97
2018-02-22T14:00:48.258Z,9.37
2018-02-22T14:03:17.120Z,8.57
2018-02-22T14:05:46.010Z,9.10
2018-02-22T14:08:20.708Z,9.30
2018-02-22T14:10:49.598Z,8.60
2018-02-22T14:13:18.460Z,7.97
2018-02-22T14:15:47.338Z,7.67
2018-02-22T14:18:16.203Z,8.43
2018-02-22T14:20:45.074Z,7.53
2018-02-22T14:23:13.935Z,10.07
2018-02-22T14:25:42.824Z,7.80
2018-02-22T14:28:11.680Z,8.37
2018-02-22T14:30:40.562Z,8.87
2018-02-22T14:33:09.438Z,7.70
2018-02-22T14:35:38.315Z,8.40
2018-02-22T14:38:07.190Z,9.27
2018-02-22T14:40:36.107Z,8.57
2018-02-22T14:43:05.015Z,8.30
2018-02-22T14:45:33.875Z,8.10
2018-02-22T14:48:02.781Z,9.43
2018-02-22T14:50:31.648Z,7.77
2018-02-22T14:53:00.527Z,8.27
2018-02-22T14:55:29.389Z,7.60
2018-02-22T14:57:58.274Z,8.83
2018-02-22T15:00:27.130Z,7.80
2018-02-22T15:02:56.013Z,7.37
2018-02-22T15:05:24.874Z,8.10
2018-02-22T15:07:53.754Z,8.60
2018-02-22T15:10:22.634Z,8.40
2018-02-22T15:12:51.511Z,9.30
2018-02-22T15:15:20.392Z,7.60
2018-02-22T15:17:49.282Z,8.20
2018-02-22T15:20:18.134Z,7.37
2018-02-22T15:22:47.011Z,7.63
2018-02-22T15:25:15.870Z,8.00
2018-02-22T15:27:44.746Z,7.43
2018-02-22T15:30:13.600Z,8.53
2018-02-22T15:32:42.477Z,7.53
2018-02-22T15:35:11.344Z,8.17
2018-02-22T15:37:40.241Z,7.80
2018-02-22T15:40:09.100Z,9.27
2018-02-22T15:42:37.955Z,7.83
2018-02-22T15:45:06.851Z,7.67
2018-02-22T15:47:35.712Z,8.07
2018-02-22T15:50:04.583Z,7.77
2018-02-22T15:52:33.456Z,7.50
2018-02-22T15:55:02.360Z,7.10
2018-02-22T15:57:31.236Z,8.13
2018-02-22T16:00:00.107Z,8.30
2018-02-22T16:02:28.989Z,7.00
2018-02-22T16:04:57.876Z,7.13
2018-02-22T16:07:26.727Z,7.77
2018-02-22T16:09:55.591Z,8.40
2018-02-22T16:12:24.447Z,6.60
2018-02-22T16:14:53.335Z,7.83
2018-02-22T16:17:22.264Z,9.07
2018-02-22T16:19:51.164Z,7.87
2018-02-22T16:22:20.023Z,8.03
2018-02-22T16:24:48.899Z,7.10
2018-02-22T16:27:17.765Z,7.77
2018-02-22T16:29:46.645Z,7.20
2018-02-22T16:32:15.503Z,8.13
2018-02-22T16:34:44.375Z,7.77
2018-02-22T16:37:13.240Z,8.97
2018-02-22T16:39:42.101Z,7.77
2018-02-22T16:42:10.980Z,8.00
2018-02-22T16:44:39.846Z,6.83
2018-02-22T16:47:08.719Z,7.73
2018-02-22T16:49:37.566Z,8.13
2018-02-22T16:54:41.630Z,8.13
2018-02-22T16:57:10.526Z,8.00
2018-02-22T16:59:39.386Z,7.67
2018-02-22T17:02:08.256Z,8.00
2018-02-22T17:04:37.114Z,8.27
2018-02-22T17:07:05.987Z,8.27
2018-02-22T17:09:34.852Z,7.83
2018-02-22T17:12:03.740Z,7.17
2018-02-22T17:14:32.607Z,7.27
2018-02-22T17:17:01.475Z,8.10
2018-02-22T17:19:30.379Z,7.50
2018-02-22T17:21:59.247Z,7.93
2018-02-22T17:24:28.120Z,8.60
2018-02-22T17:27:02.642Z,7.10
2018-02-22T17:29:37.126Z,7.00
2018-02-22T17:32:11.799Z,8.40
2018-02-22T17:34:40.647Z,7.60
2018-02-22T17:37:15.327Z,8.50
2018-02-22T17:39:49.951Z,7.60
2018-02-22T17:42:18.831Z,7.50
2018-02-22T17:44:47.685Z,7.40
2018-02-22T17:47:16.555Z,6.80
2018-02-22T17:49:45.414Z,7.40
2018-02-22T17:52:14.291Z,7.60
2018-02-22T17:54:43.152Z,7.30
2018-02-22T17:57:12.040Z,7.50
2018-02-22T17:59:40.911Z,8.23
2018-02-22T18:02:09.792Z,7.50
2018-02-22T18:04:38.643Z,7.30
2018-02-22T18:07:07.515Z,7.63
2018-02-22T18:09:36.376Z,9.43
2018-02-22T18:12:05.252Z,9.07
2018-02-22T18:14:34.102Z,8.40
2018-02-22T18:17:02.954Z,9.33
2018-02-22T18:19:31.845Z,9.00
2018-02-22T18:22:00.714Z,10.00
2018-02-22T18:24:29.632Z,7.73
2018-02-22T18:26:58.479Z,9.60
2018-02-22T18:29:27.346Z,8.17
2018-02-22T18:31:56.215Z,8.47
2018-02-22T18:34:25.091Z,8.47
2018-02-22T18:36:53.957Z,8.63
2018-02-22T18:39:27.742Z,9.37
2018-02-22T18:42:02.247Z,8.93
2018-02-22T18:44:36.882Z,9.40
2018-02-22T18:47:05.731Z,8.80
2018-02-22T18:49:34.601Z,8.60
2018-02-22T18:52:03.451Z,8.93
2018-02-22T18:54:32.336Z,9.30
2018-02-22T18:57:01.187Z,8.50
2018-02-22T18:59:30.059Z,8.80
2018-02-22T19:01:58.931Z,9.20
2018-02-22T19:04:27.803Z,9.40
2018-02-22T19:06:56.664Z,8.47
2018-02-22T19:09:25.550Z,8.90
2018-02-22T19:11:54.412Z,8.77
2018-02-22T19:14:23.269Z,8.77
2018-02-22T19:16:52.160Z,8.23
2018-02-22T19:19:21.007Z,8.90
2018-02-22T19:21:49.880Z,8.70
2018-02-22T19:24:18.742Z,9.47
2018-02-22T19:26:47.635Z,9.00
2018-02-22T19:29:16.505Z,10.20
2018-02-22T19:31:45.379Z,10.63
2018-02-22T19:34:14.276Z,8.83
2018-02-22T19:36:43.150Z,9.30
2018-02-22T19:39:12.005Z,9.10
2018-02-22T19:41:40.880Z,9.17
2018-02-22T19:44:09.752Z,11.27
2018-02-22T19:46:38.641Z,9.40
2018-02-22T19:49:07.495Z,9.47
2018-02-22T19:51:36.388Z,9.20
2018-02-22T19:54:05.250Z,9.17
2018-02-22T19:56:34.115Z,9.20
2018-02-22T19:59:02.995Z,9.73
2018-02-22T20:01:31.874Z,9.17
2018-02-22T20:04:00.747Z,10.27
2018-02-22T20:06:29.682Z,10.27
2018-02-22T20:08:58.522Z,10.53
2018-02-22T20:11:27.383Z,10.47
2018-02-22T20:13:56.259Z,9.80
2018-02-22T20:16:25.132Z,9.97
2018-02-22T20:18:54.025Z,10.67
2018-02-22T20:21:22.899Z,11.20
2018-02-22T20:23:52.547Z,10.17
2018-02-22T20:26:22.094Z,10.67
2018-02-22T20:28:50.958Z,10.23
2018-02-22T20:31:19.806Z,9.63
2018-02-22T20:33:48.778Z,10.03
2018-02-22T20:36:17.709Z,9.53
2018-02-22T20:38:46.618Z,10.20
2018-02-22T20:41:15.481Z,10.20
2018-02-22T20:43:44.355Z,10.23
2018-02-22T20:46:19.225Z,10.27
2018-02-22T20:48:58.706Z,9.17
2018-02-22T20:51:27.610Z,9.37
2018-02-22T20:56:45.530Z,9.30
2018-02-22T21:01:51.029Z,10.13
2018-02-22T21:04:35.980Z,9.53
2018-02-22T21:07:04.835Z,10.77
2018-02-22T21:09:33.726Z,11.00
2018-02-22T21:12:02.592Z,11.37
2018-02-22T21:14:31.466Z,10.80
2018-02-22T21:17:00.330Z,11.27
2018-02-22T21:19:29.213Z,11.80
2018-02-22T21:21:58.141Z,11.37
2018-02-22T21:24:27.050Z,10.97
2018-02-22T21:26:55.943Z,11.80
2018-02-22T21:29:24.887Z,11.30
2018-02-22T21:31:53.763Z,11.73
2018-02-22T21:34:22.642Z,12.07
2018-02-22T21:36:51.511Z,10.97
2018-02-22T21:39:20.399Z,11.47
2018-02-22T21:41:49.260Z,12.10
2018-02-22T21:44:18.155Z,12.33
2018-02-22T21:46:47.012Z,13.30
2018-02-22T21:49:15.871Z,13.27
2018-02-22T21:51:44.751Z,12.00
2018-02-22T21:54:13.614Z,14.40
2018-02-22T21:56:42.486Z,12.63
2018-02-22T21:59:11.344Z,12.80
2018-02-22T22:01:40.222Z,14.07
2018-02-22T22:04:09.082Z,12.50
2018-02-22T22:06:37.987Z,13.40
2018-02-22T22:09:06.853Z,13.37
2018-02-22T22:11:35.732Z,12.87
2018-02-22T22:14:04.590Z,14.70
2018-02-22T22:16:33.471Z,12.83
2018-02-22T22:19:02.601Z,13.60
2018-02-22T22:21:31.517Z,12.87
2018-02-22T22:24:00.399Z,13.80
2018-02-22T22:26:29.273Z,13.87
2018-02-22T22:28:58.151Z,13.33
2018-02-22T22:31:27.046Z,13.90
2018-02-22T22:33:56.126Z,14.87
2018-02-22T22:36:24.993Z,13.60
2018-02-22T22:38:53.871Z,13.23
2018-02-22T22:41:22.730Z,13.80
2018-02-22T22:43:51.620Z,13.80
2018-02-22T22:46:20.495Z,14.57
2018-02-22T22:48:49.375Z,14.10
2018-02-22T22:51:18.239Z,15.00
2018-02-22T22:53:47.110Z,15.47
2018-02-22T22:56:15.971Z,13.47
2018-02-22T22:58:44.860Z,13.07
2018-02-22T23:01:13.715Z,14.40
2018-02-22T23:03:42.611Z,14.53
2018-02-22T23:06:11.471Z,16.00
2018-02-22T23:08:40.347Z,14.83
2018-02-22T23:11:09.209Z,15.23
2018-02-22T23:13:38.093Z,16.13
2018-02-22T23:16:06.952Z,15.83
2018-02-22T23:18:35.839Z,14.73
2018-02-22T23:21:04.704Z,16.00
2018-02-22T23:23:33.596Z,15.40
2018-02-22T23:26:02.456Z,16.20
2018-02-22T23:28:31.368Z,15.50
2018-02-22T23:31:00.232Z,17.10
2018-02-22T23:33:29.092Z,15.30
2018-02-22T23:35:57.966Z,16.17
2018-02-22T23:38:26.844Z,15.50
2018-02-22T23:41:01.369Z,15.93
2018-02-22T23:43:30.222Z,16.23
2018-02-22T23:45:59.112Z,16.83
2018-02-22T23:48:27.978Z,14.53
2018-02-22T23:50:56.864Z,17.00
2018-02-22T23:53:25.728Z,16.03
2018-02-22T23:55:54.603Z,17.47
2018-02-22T23:58:23.473Z,15.73
